Time;durP1;ratioP1;P1;durP2;ratioP2;P2;SDS_P1;SDS_P2;PMS_P1;PMS_P2;Temp;Humidity;BMP_temperature;BMP_pressure;BME280_temperature;BME280_humidity;BME280_pressure;Samples;Min_cycle;Max_cycle;Signal;HPM_P1;HPM_P2
2023/11/03 00:01:51;;;;;;;0.68;0.60;;;;;;;5.24;57.02;99444.56;5116385;28;20040;-63
2023/11/03 00:04:16;;;;;;;0.90;0.40;;;;;;;5.20;56.90;99429.78;5116181;28;20350;-63
2023/11/03 00:06:45;;;;;;;1.38;0.50;;;;;;;5.28;56.85;99438.09;5116051;28;20073;-63
2023/11/03 00:09:14;;;;;;;0.98;0.40;;;;;;;5.25;56.43;99443.59;5116251;28;20042;-64
2023/11/03 00:11:41;;;;;;;1.27;0.32;;;;;;;5.20;56.83;99429.78;5116478;28;20111;-63
2023/11/03 00:14:07;;;;;;;0.50;0.30;;;;;;;5.16;56.80;99441.56;5114766;28;20095;-62
2023/11/03 00:16:32;;;;;;;1.55;0.73;;;;;;;4.99;56.75;99416.94;5116495;28;20057;-64
2023/11/03 00:19:00;;;;;;;1.15;0.47;;;;;;;5.05;56.95;99446.69;5115986;27;20096;-62
2023/11/03 00:21:33;;;;;;;0.70;0.40;;;;;;;5.10;57.43;99449.91;5114866;28;20088;-62
2023/11/03 00:23:59;;;;;;;1.52;0.47;;;;;;;5.07;56.93;99439.50;5115643;28;20034;-65
2023/11/03 00:26:25;;;;;;;0.98;0.70;;;;;;;5.11;57.12;99449.78;5115870;28;20039;-63
2023/11/03 00:28:50;;;;;;;1.13;0.52;;;;;;;4.88;57.04;99411.47;5115432;28;20379;-62
2023/11/03 00:31:16;;;;;;;0.40;0.38;;;;;;;5.11;57.03;99456.94;5115890;28;20028;-64
2023/11/03 00:33:44;;;;;;;1.15;0.65;;;;;;;4.95;57.19;99452.59;5115475;28;20032;-63
2023/11/03 00:36:14;;;;;;;0.90;0.50;;;;;;;4.99;56.83;99464.69;5115797;28;20027;-64
2023/11/03 00:38:46;;;;;;;0.40;0.40;;;;;;;5.02;56.95;99484.88;5115781;28;20032;-64
2023/11/03 00:41:14;;;;;;;0.73;0.50;;;;;;;4.92;57.21;99478.44;5114927;28;20134;-64
2023/11/03 00:43:42;;;;;;;0.73;0.50;;;;;;;4.85;57.36;99475.34;5115441;28;20042;-63
2023/11/03 00:46:09;;;;;;;0.70;0.50;;;;;;;4.92;57.62;99481.97;5115832;28;20374;-64
2023/11/03 00:48:36;;;;;;;0.68;0.40;;;;;;;4.88;57.52;99481.28;5115058;28;20442;-63
2023/11/03 00:51:03;;;;;;;0.57;0.50;;;;;;;4.89;57.64;99484.81;5115261;28;20039;-63
2023/11/03 00:53:29;;;;;;;1.92;0.47;;;;;;;4.84;57.28;99471.00;5115059;28;20038;-62
2023/11/03 00:55:55;;;;;;;1.50;0.50;;;;;;;4.93;57.66;99477.50;5115629;28;20031;-63
2023/11/03 00:58:21;;;;;;;0.85;0.55;;;;;;;4.97;57.67;99479.88;5116013;28;20042;-63
2023/11/03 01:00:47;;;;;;;1.98;0.47;;;;;;;5.03;57.04;99483.94;5115239;28;20027;-63
2023/11/03 01:03:14;;;;;;;1.00;0.60;;;;;;;5.05;57.30;99484.69;5114952;28;20378;-63
2023/11/03 01:05:40;;;;;;;0.63;0.50;;;;;;;5.05;57.86;99484.69;5115324;28;20032;-63
2023/11/03 01:08:05;;;;;;;1.35;0.75;;;;;;;5.11;57.23;99489.59;5114961;28;20035;-63
2023/11/03 01:10:32;;;;;;;0.80;0.60;;;;;;;5.13;57.32;99497.47;5114563;28;20043;-63
2023/11/03 01:12:59;;;;;;;1.83;0.60;;;;;;;5.15;57.25;99492.94;5114667;28;20039;-62
2023/11/03 01:15:25;;;;;;;1.05;0.85;;;;;;;5.16;57.68;99498.13;5115079;28;20114;-63
2023/11/03 01:17:50;;;;;;;4.60;0.90;;;;;;;5.11;57.36;99494.06;5115019;28;20102;-63
2023/11/03 01:20:27;;;;;;;2.45;0.80;;;;;;;5.18;57.69;99500.69;5114753;28;20468;-62
2023/11/03 01:22:54;;;;;;;0.98;0.85;;;;;;;5.24;57.28;99510.06;5114588;28;20063;-59
2023/11/03 01:25:21;;;;;;;2.08;1.30;;;;;;;5.23;57.28;99506.56;5115377;28;20031;-64
2023/11/03 01:27:47;;;;;;;4.63;1.20;;;;;;;5.23;57.47;99501.25;5114649;28;20063;-64
2023/11/03 01:30:14;;;;;;;1.10;1.00;;;;;;;5.26;57.07;99516.97;5114810;28;20067;-64
2023/11/03 01:32:40;;;;;;;4.60;1.00;;;;;;;5.25;57.84;99517.09;5114479;28;20038;-58
2023/11/03 01:35:08;;;;;;;2.17;1.10;;;;;;;5.25;57.47;99512.63;5113540;28;20043;-64
2023/11/03 01:37:34;;;;;;;2.45;1.10;;;;;;;5.24;57.46;99505.59;5114387;28;20410;-61
2023/11/03 01:39:59;;;;;;;2.05;1.00;;;;;;;4.97;57.59;99468.41;5113970;28;20073;-63
2023/11/03 01:42:25;;;;;;;2.25;0.90;;;;;;;5.23;57.98;99514.50;5114388;28;20032;-64
2023/11/03 01:44:51;;;;;;;2.40;0.90;;;;;;;5.25;58.40;99504.66;5114788;28;20035;-63
2023/11/03 01:47:17;;;;;;;1.17;0.95;;;;;;;5.25;57.69;99512.63;5113861;28;20055;-63
2023/11/03 01:49:44;;;;;;;1.70;1.23;;;;;;;5.22;57.93;99518.13;5114193;28;20129;-64
2023/11/03 01:52:11;;;;;;;2.25;1.35;;;;;;;5.22;57.61;99511.97;5113227;28;20412;-63
2023/11/03 01:54:38;;;;;;;1.05;0.80;;;;;;;5.21;57.84;99531.50;5114142;28;20031;-64
2023/11/03 01:57:04;;;;;;;1.10;1.00;;;;;;;5.21;57.77;99534.16;5114320;28;20081;-64
2023/11/03 01:59:30;;;;;;;2.70;1.00;;;;;;;5.20;57.83;99529.81;5113638;28;20032;-63
2023/11/03 02:01:56;;;;;;;0.95;0.85;;;;;;;5.20;57.72;99530.63;5113769;27;20031;-60
2023/11/03 02:04:21;;;;;;;1.50;0.85;;;;;;;5.22;57.38;99530.56;5114296;28;20517;-63
2023/11/03 02:06:47;;;;;;;1.20;0.80;;;;;;;5.22;57.19;99534.03;5114403;28;20111;-64
2023/11/03 02:09:13;;;;;;;3.17;0.70;;;;;;;5.22;57.49;99535.88;5113592;28;20107;-64
2023/11/03 02:11:43;;;;;;;1.35;0.70;;;;;;;5.25;57.98;99543.63;5114070;28;20088;-63
2023/11/03 02:14:10;;;;;;;3.13;0.82;;;;;;;5.14;56.91;99537.19;5113610;28;20416;-64
2023/11/03 02:16:36;;;;;;;1.08;0.75;;;;;;;5.19;57.24;99528.09;5113017;28;20497;-64
2023/11/03 02:19:03;;;;;;;0.73;0.73;;;;;;;5.15;56.94;99538.88;5113580;28;20028;-64
2023/11/03 02:21:35;;;;;;;1.52;1.00;;;;;;;5.14;57.11;99541.66;5113365;28;20419;-64
2023/11/03 02:24:01;;;;;;;2.35;0.80;;;;;;;5.03;56.81;99537.00;5113063;28;20389;-65
2023/11/03 02:26:26;;;;;;;4.03;0.90;;;;;;;4.98;57.28;99533.78;5113520;28;20063;-58
2023/11/03 02:28:52;;;;;;;0.52;0.52;;;;;;;4.97;57.30;99546.19;5113822;28;20046;-65
2023/11/03 02:31:18;;;;;;;2.15;1.00;;;;;;;4.96;57.14;99548.97;5113462;28;20028;-64
2023/11/03 02:33:43;;;;;;;0.98;0.88;;;;;;;4.98;57.38;99544.41;5112420;28;20027;-65
2023/11/03 02:36:09;;;;;;;0.63;0.55;;;;;;;4.98;57.04;99550.56;5113338;28;20339;-63
2023/11/03 02:38:34;;;;;;;2.42;0.70;;;;;;;4.98;57.58;99549.72;5113386;28;20062;-63
2023/11/03 02:41:00;;;;;;;2.47;0.90;;;;;;;5.00;57.63;99548.66;5113775;28;20028;-63
2023/11/03 02:43:26;;;;;;;0.68;0.57;;;;;;;5.04;57.67;99557.28;5113638;28;20034;-62
2023/11/03 02:45:51;;;;;;;2.90;0.80;;;;;;;5.05;57.65;99559.00;5112799;28;20077;-65
2023/11/03 02:48:17;;;;;;;1.83;0.85;;;;;;;4.90;57.21;99523.66;5111645;28;20042;-63
2023/11/03 02:50:42;;;;;;;1.48;0.88;;;;;;;5.05;57.02;99547.50;5113470;28;20034;-64
2023/11/03 02:53:08;;;;;;;1.42;0.98;;;;;;;5.13;56.68;99556.69;5113395;28;20019;-64
2023/11/03 02:55:35;;;;;;;2.45;0.85;;;;;;;5.11;57.47;99552.47;5112508;28;20035;-65
2023/11/03 02:58:02;;;;;;;2.45;0.80;;;;;;;5.10;57.00;99556.06;5112853;28;20028;-63
2023/11/03 03:00:28;;;;;;;1.60;0.90;;;;;;;5.10;57.57;99561.38;5113588;28;20403;-60
2023/11/03 03:02:54;;;;;;;1.10;0.82;;;;;;;4.87;57.07;99526.50;5113470;28;20028;-64
2023/11/03 03:05:20;;;;;;;1.48;0.90;;;;;;;5.13;56.80;99561.16;5112774;28;20414;-64
2023/11/03 03:07:46;;;;;;;2.85;1.17;;;;;;;5.10;56.82;99564.84;5111948;28;20031;-64
2023/11/03 03:10:12;;;;;;;1.58;1.05;;;;;;;5.05;57.02;99553.69;5112915;28;20511;-64
2023/11/03 03:12:38;;;;;;;2.47;1.10;;;;;;;5.00;57.45;99563.75;5113229;28;20122;-64
2023/11/03 03:15:04;;;;;;;1.30;1.08;;;;;;;4.96;57.82;99560.41;5112916;28;20429;-63
2023/11/03 03:17:31;;;;;;;1.75;1.00;;;;;;;4.96;58.16;99571.03;5112428;28;20038;-65
2023/11/03 03:19:56;;;;;;;1.17;1.08;;;;;;;5.02;58.24;99575.94;5113516;28;20107;-62
2023/11/03 03:22:22;;;;;;;2.50;1.20;;;;;;;5.01;57.47;99576.06;5112768;28;20357;-63
2023/11/03 03:24:48;;;;;;;1.35;1.25;;;;;;;5.08;57.59;99584.50;5112128;28;20073;-63
2023/11/03 03:27:13;;;;;;;1.70;1.15;;;;;;;5.07;57.24;99593.41;5112546;28;20051;-64
2023/11/03 03:29:39;;;;;;;1.30;1.20;;;;;;;5.02;57.78;99594.50;5111788;28;20035;-64
2023/11/03 03:32:04;;;;;;;3.05;1.50;;;;;;;4.99;57.92;99597.34;5113746;28;20110;-63
2023/11/03 03:34:30;;;;;;;3.67;1.25;;;;;;;4.97;57.65;99593.94;5116406;28;20076;-62
2023/11/03 03:36:56;;;;;;;1.40;1.30;;;;;;;4.99;57.97;99602.66;5117043;28;20354;-64
2023/11/03 03:39:21;;;;;;;1.50;1.40;;;;;;;4.97;57.59;99588.66;5116396;28;20023;-65
2023/11/03 03:41:53;;;;;;;3.25;1.50;;;;;;;4.95;57.91;99589.69;5116538;28;20039;-64
2023/11/03 03:44:19;;;;;;;4.53;1.30;;;;;;;4.85;58.08;99592.06;5116061;28;20103;-64
2023/11/03 03:46:44;;;;;;;1.58;1.48;;;;;;;4.81;57.71;99599.34;5116632;28;20066;-64
2023/11/03 03:49:10;;;;;;;5.10;1.50;;;;;;;4.82;57.55;99593.09;5116273;28;20028;-64
2023/11/03 03:51:35;;;;;;;3.28;1.30;;;;;;;4.83;58.12;99596.59;5116721;28;20020;-64
2023/11/03 03:54:01;;;;;;;2.97;1.63;;;;;;;4.81;58.06;99599.34;5116126;28;20035;-64
2023/11/03 03:56:27;;;;;;;2.65;1.60;;;;;;;4.73;58.66;99597.16;5116443;27;20031;-63
2023/11/03 03:58:53;;;;;;;2.40;2.10;;;;;;;4.72;58.38;99602.56;5115830;28;20165;-64
2023/11/03 04:01:20;;;;;;;2.05;1.85;;;;;;;4.82;58.26;99626.69;5116495;28;20161;-63
2023/11/03 04:03:45;;;;;;;1.92;1.63;;;;;;;4.84;58.71;99625.69;5115656;28;20034;-63
2023/11/03 04:06:11;;;;;;;3.15;1.60;;;;;;;4.88;58.06;99629.84;5115916;28;20035;-65
2023/11/03 04:08:37;;;;;;;2.30;1.80;;;;;;;4.87;58.67;99629.97;5116003;28;20167;-64
2023/11/03 04:11:03;;;;;;;4.13;1.90;;;;;;;4.86;58.10;99637.03;5115860;27;20395;-55
2023/11/03 04:13:29;;;;;;;1.48;1.38;;;;;;;4.78;58.21;99635.78;5116382;28;20423;-64
2023/11/03 04:15:54;;;;;;;3.22;1.80;;;;;;;4.80;58.07;99641.84;5115744;28;20028;-63
2023/11/03 04:18:21;;;;;;;2.28;1.70;;;;;;;4.74;57.97;99651.91;5116144;28;20099;-64
2023/11/03 04:20:47;;;;;;;3.35;1.58;;;;;;;4.67;58.37;99650.56;5115718;28;20028;-68
2023/11/03 04:23:13;;;;;;;1.90;1.35;;;;;;;4.64;58.69;99655.19;5114003;28;20045;-63
2023/11/03 04:25:39;;;;;;;1.88;1.30;;;;;;;4.62;58.70;99663.25;5115920;28;20047;-68
2023/11/03 04:28:06;;;;;;;2.63;1.55;;;;;;;4.58;58.79;99661.69;5116140;28;20032;-61
2023/11/03 04:30:35;;;;;;;4.25;1.23;;;;;;;4.58;58.67;99662.56;5116051;28;20031;-63
2023/11/03 04:33:02;;;;;;;1.92;1.38;;;;;;;4.57;58.56;99673.25;5115851;28;20331;-62
2023/11/03 04:35:28;;;;;;;2.22;1.15;;;;;;;4.57;58.71;99667.94;5115849;28;20031;-70
2023/11/03 04:37:54;;;;;;;1.63;1.20;;;;;;;4.60;58.83;99665.13;5115407;28;20139;-71
2023/11/03 04:40:20;;;;;;;2.40;1.50;;;;;;;4.63;58.68;99675.56;5115393;28;20034;-70
2023/11/03 04:42:49;;;;;;;3.63;1.55;;;;;;;4.49;58.86;99641.91;5114843;28;20097;-69
2023/11/03 04:45:20;;;;;;;2.90;1.40;;;;;;;4.70;58.58;99684.84;5115724;28;20027;-71
2023/11/03 04:47:46;;;;;;;3.65;1.75;;;;;;;4.68;58.52;99673.47;5115576;28;20039;-69
2023/11/03 04:50:11;;;;;;;3.03;1.70;;;;;;;4.58;58.29;99673.16;5114148;28;20093;-70
2023/11/03 04:52:40;;;;;;;3.00;1.88;;;;;;;4.70;59.09;99689.28;5113571;28;20034;-69
2023/11/03 04:55:09;;;;;;;2.78;2.30;;;;;;;4.65;58.73;99681.63;5114837;28;20032;-66
2023/11/03 04:57:35;;;;;;;7.18;2.05;;;;;;;4.63;58.66;99672.03;5115892;28;20059;-69
2023/11/03 05:00:02;;;;;;;4.25;2.60;;;;;;;4.61;58.75;99672.13;5115268;28;20039;-67
2023/11/03 05:02:30;;;;;;;4.53;2.30;;;;;;;4.60;58.71;99681.88;5113901;28;20034;-69
2023/11/03 05:04:56;;;;;;;3.45;2.50;;;;;;;4.59;58.63;99695.25;5115151;28;20043;-70
2023/11/03 05:07:22;;;;;;;3.15;2.40;;;;;;;4.63;59.26;99694.13;5114200;28;20023;-70
2023/11/03 05:09:48;;;;;;;5.05;2.50;;;;;;;4.67;59.06;99702.72;5114943;28;20027;-72
2023/11/03 05:12:14;;;;;;;4.70;2.45;;;;;;;4.70;58.73;99711.38;5113682;28;20080;-70
2023/11/03 05:14:39;;;;;;;3.35;2.92;;;;;;;4.73;58.87;99703.22;5115255;28;20028;-69
2023/11/03 05:17:07;;;;;;;3.28;2.88;;;;;;;4.77;58.62;99713.66;5114515;28;20047;-69
2023/11/03 05:19:35;;;;;;;4.18;2.88;;;;;;;4.82;58.78;99722.19;5115150;28;20063;-69
2023/11/03 05:22:01;;;;;;;6.45;3.65;;;;;;;4.60;59.14;99676.56;5113237;28;20030;-69
2023/11/03 05:24:28;;;;;;;4.88;3.70;;;;;;;4.85;58.70;99716.75;5114698;28;20024;-69
2023/11/03 05:26:54;;;;;;;4.78;3.60;;;;;;;4.83;58.28;99714.16;5114503;28;20052;-69
2023/11/03 05:29:22;;;;;;;5.38;4.18;;;;;;;4.90;58.31;99725.28;5115126;28;20043;-70
2023/11/03 05:31:51;;;;;;;6.57;3.45;;;;;;;4.94;58.64;99720.63;5115775;27;20055;-68
2023/11/03 05:34:18;;;;;;;5.32;3.53;;;;;;;4.96;58.07;99729.38;5115102;28;20783;-69
2023/11/03 05:36:44;;;;;;;10.25;3.88;;;;;;;4.98;58.33;99722.19;5113870;28;20039;-69
2023/11/03 05:39:09;;;;;;;5.32;3.38;;;;;;;5.03;58.27;99725.41;5114305;28;20074;-69
2023/11/03 05:41:35;;;;;;;4.60;3.47;;;;;;;5.07;58.16;99734.06;5113776;28;20100;-70
2023/11/03 05:44:01;;;;;;;3.17;2.88;;;;;;;5.09;58.23;99722.38;5113298;28;20027;-69
2023/11/03 05:46:26;;;;;;;3.95;2.95;;;;;;;5.12;58.09;99729.31;5114084;27;20177;-69
2023/11/03 05:48:52;;;;;;;4.18;3.38;;;;;;;5.15;58.23;99740.59;5114222;28;20378;-70
2023/11/03 05:51:21;;;;;;;6.50;3.22;;;;;;;5.16;57.72;99734.31;5112736;28;20104;-69
2023/11/03 05:53:50;;;;;;;8.45;3.45;;;;;;;5.15;58.12;99731.78;5113527;28;20031;-70
2023/11/03 05:56:17;;;;;;;5.20;3.10;;;;;;;5.19;57.78;99737.78;5113246;28;20028;-68
2023/11/03 05:58:43;;;;;;;6.15;3.67;;;;;;;4.89;57.47;99697.03;5113515;28;20070;-68
2023/11/03 06:01:08;;;;;;;5.10;3.42;;;;;;;5.14;57.71;99741.53;5113932;28;20023;-69
2023/11/03 06:03:37;;;;;;;7.07;3.30;;;;;;;4.92;57.75;99704.81;5114064;28;20032;-70
2023/11/03 06:06:06;;;;;;;8.80;3.90;;;;;;;5.16;58.18;99742.28;5113940;28;20023;-69
2023/11/03 06:08:32;;;;;;;5.90;3.92;;;;;;;5.22;58.03;99735.78;5112137;28;20042;-68
2023/11/03 06:10:58;;;;;;;4.78;3.75;;;;;;;5.25;57.60;99754.16;5113604;28;20031;-70
2023/11/03 06:13:23;;;;;;;4.95;3.60;;;;;;;5.10;57.84;99733.88;5113239;28;20030;-69
2023/11/03 06:15:49;;;;;;;7.07;3.70;;;;;;;5.21;57.53;99759.78;5113154;28;20034;-68
2023/11/03 06:18:15;;;;;;;4.22;3.72;;;;;;;5.12;57.86;99750.53;5113471;28;20024;-70
2023/11/03 06:20:41;;;;;;;7.30;3.30;;;;;;;5.11;57.53;99748.84;5113755;28;20327;-69
2023/11/03 06:23:06;;;;;;;3.63;3.33;;;;;;;5.13;58.56;99757.56;5113997;27;20092;-71
2023/11/03 06:25:32;;;;;;;4.88;3.42;;;;;;;5.16;58.29;99752.06;5112849;28;20023;-69
2023/11/03 06:27:57;;;;;;;5.13;3.20;;;;;;;5.22;58.04;99745.56;5113107;28;20446;-68
2023/11/03 06:30:23;;;;;;;6.80;3.67;;;;;;;5.11;58.08;99728.44;5113652;28;20027;-69
2023/11/03 06:32:50;;;;;;;11.77;3.70;;;;;;;5.31;58.07;99777.72;5113540;28;20374;-70
2023/11/03 06:35:16;;;;;;;4.50;3.60;;;;;;;5.26;57.89;99763.84;5112985;28;20041;-71
2023/11/03 06:37:41;;;;;;;7.03;3.83;;;;;;;5.30;57.65;99767.16;5113002;28;20039;-63
2023/11/03 06:40:11;;;;;;;8.75;3.78;;;;;;;5.32;57.85;99768.81;5113042;28;20095;-68
2023/11/03 06:42:38;;;;;;;4.00;3.65;;;;;;;5.38;57.79;99758.75;5112780;28;20088;-68
2023/11/03 06:45:07;;;;;;;6.20;4.05;;;;;;;5.43;57.96;99775.25;5112424;28;20032;-69
2023/11/03 06:47:33;;;;;;;4.85;3.85;;;;;;;5.45;57.38;99773.38;5113040;28;20083;-69
2023/11/03 06:49:59;;;;;;;7.43;4.03;;;;;;;5.48;57.60;99782.97;5113359;28;20069;-69
2023/11/03 06:52:25;;;;;;;7.53;4.47;;;;;;;5.51;57.78;99783.59;5113346;28;20036;-69
2023/11/03 06:54:51;;;;;;;9.32;4.72;;;;;;;5.56;57.93;99781.56;5112259;28;20366;-70
2023/11/03 06:57:16;;;;;;;9.13;4.18;;;;;;;5.62;57.88;99779.47;5112959;28;20326;-68
2023/11/03 06:59:41;;;;;;;4.78;3.92;;;;;;;5.68;57.57;99787.03;5112998;28;20027;-70
2023/11/03 07:02:08;;;;;;;9.57;4.35;;;;;;;5.71;57.47;99786.84;5113308;28;20123;-69
2023/11/03 07:04:35;;;;;;;4.15;3.50;;;;;;;5.70;56.99;99770.09;5112649;28;20093;-69
2023/11/03 07:07:01;;;;;;;11.80;4.15;;;;;;;5.84;57.01;99785.16;5112702;28;20031;-69
2023/11/03 07:09:27;;;;;;;9.23;4.82;;;;;;;5.87;56.97;99790.28;5112541;28;20442;-68
2023/11/03 07:11:54;;;;;;;7.50;4.38;;;;;;;5.94;56.74;99797.88;5113026;28;20038;-69
2023/11/03 07:14:20;;;;;;;8.55;4.50;;;;;;;5.97;56.57;99800.34;5112485;28;20338;-68
2023/11/03 07:16:47;;;;;;;5.10;4.40;;;;;;;5.94;56.64;99789.91;5112714;28;20032;-68
2023/11/03 07:19:13;;;;;;;7.07;4.90;;;;;;;5.97;56.62;99795.91;5112974;28;20028;-69
2023/11/03 07:21:39;;;;;;;11.43;5.15;;;;;;;5.92;56.46;99786.50;5113023;28;20031;-68
2023/11/03 07:24:05;;;;;;;6.88;5.68;;;;;;;5.98;56.33;99796.72;5111531;28;20133;-68
2023/11/03 07:26:31;;;;;;;10.23;5.10;;;;;;;5.98;56.47;99786.97;5112741;28;20089;-69
2023/11/03 07:28:56;;;;;;;8.57;5.15;;;;;;;5.85;56.11;99770.06;5112554;28;20063;-69
2023/11/03 07:31:22;;;;;;;12.73;4.63;;;;;;;6.01;56.53;99796.56;5112609;28;20047;-70
2023/11/03 07:33:47;;;;;;;6.72;5.10;;;;;;;6.15;55.92;99809.03;5108801;28;20027;-64
2023/11/03 07:36:13;;;;;;;14.55;5.70;;;;;;;6.24;55.68;99813.75;5108298;28;20063;-64
2023/11/03 07:38:39;;;;;;;6.18;5.10;;;;;;;6.28;55.35;99812.59;5106503;28;20399;-62
2023/11/03 07:41:08;;;;;;;7.82;5.80;;;;;;;6.30;55.99;99812.53;5111305;28;20040;-67
2023/11/03 07:43:36;;;;;;;9.32;6.45;;;;;;;6.37;55.66;99827.13;5110573;28;20031;-68
2023/11/03 07:46:02;;;;;;;7.95;6.65;;;;;;;6.35;55.56;99829.03;5091921;28;20031;-62
2023/11/03 07:48:28;;;;;;;10.32;6.47;;;;;;;6.31;55.60;99827.53;5091992;28;20024;-65
2023/11/03 07:50:53;;;;;;;8.40;6.18;;;;;;;6.08;55.54;99797.06;5110870;28;20040;-66
2023/11/03 07:53:19;;;;;;;7.50;6.55;;;;;;;6.33;55.72;99844.25;5110713;28;20040;-63
2023/11/03 07:55:44;;;;;;;10.45;6.70;;;;;;;6.17;55.60;99809.78;5110442;28;20031;-61
2023/11/03 07:58:10;;;;;;;16.17;7.35;;;;;;;6.19;55.79;99815.84;5112519;28;20041;-63
2023/11/03 08:00:35;;;;;;;12.90;7.65;;;;;;;6.35;55.45;99849.44;5111787;28;20461;-62
2023/11/03 08:03:04;;;;;;;8.18;7.28;;;;;;;6.36;55.36;99860.00;5111681;28;20065;-62
2023/11/03 08:05:29;;;;;;;11.48;7.93;;;;;;;6.38;55.42;99855.44;5110619;28;20446;-62
2023/11/03 08:07:55;;;;;;;11.38;6.85;;;;;;;6.37;55.67;99848.41;5112537;28;20032;-63
2023/11/03 08:10:20;;;;;;;9.10;7.60;;;;;;;6.33;55.08;99844.25;5112052;28;20047;-63
2023/11/03 08:12:46;;;;;;;15.20;7.57;;;;;;;6.37;55.31;99856.38;5111245;28;20028;-62
2023/11/03 08:15:11;;;;;;;10.98;8.15;;;;;;;6.42;55.44;99854.28;5112418;28;20368;-64
2023/11/03 08:17:37;;;;;;;10.18;7.38;;;;;;;6.47;55.34;99861.97;5112268;28;20023;-61
2023/11/03 08:20:06;;;;;;;11.95;7.82;;;;;;;6.49;55.05;99869.84;5115154;28;20027;-63
2023/11/03 08:22:33;;;;;;;9.85;6.80;;;;;;;6.50;54.86;99867.09;5115348;28;20039;-64
2023/11/03 08:24:58;;;;;;;9.20;6.75;;;;;;;6.40;55.27;99853.53;5114780;28;20059;-64
2023/11/03 08:27:24;;;;;;;11.00;6.28;;;;;;;6.42;55.21;99864.91;5115797;27;20094;-64
2023/11/03 08:29:50;;;;;;;11.77;6.90;;;;;;;6.40;55.29;99869.47;5114955;28;20024;-62
2023/11/03 08:32:16;;;;;;;11.75;7.28;;;;;;;6.42;55.64;99870.25;5114429;28;20042;-62
2023/11/03 08:34:42;;;;;;;10.05;7.05;;;;;;;6.46;55.45;99877.06;5115158;28;20031;-65
2023/11/03 08:37:08;;;;;;;14.32;6.97;;;;;;;6.49;55.46;99870.72;5111368;28;20097;-63
2023/11/03 08:39:33;;;;;;;8.77;6.50;;;;;;;6.45;55.32;99862.06;5104772;28;20599;-65
2023/11/03 08:42:02;;;;;;;9.23;7.30;;;;;;;6.48;55.08;99861.03;5113138;28;20449;-63
2023/11/03 08:44:28;;;;;;;9.55;7.53;;;;;;;6.55;54.99;99872.16;5102453;28;20024;-63
2023/11/03 08:46:53;;;;;;;13.90;7.78;;;;;;;6.56;55.30;99866.72;5104334;28;20028;-60
2023/11/03 08:49:19;;;;;;;9.27;7.18;;;;;;;6.56;55.05;99872.03;5114691;28;20448;-64
2023/11/03 08:51:45;;;;;;;11.27;7.85;;;;;;;6.51;54.86;99875.94;5114822;28;20024;-60
2023/11/03 08:54:10;;;;;;;9.93;7.78;;;;;;;6.47;54.71;99867.31;5115111;28;20059;-63
2023/11/03 08:56:36;;;;;;;14.07;7.80;;;;;;;6.50;55.01;99877.75;5114193;28;20027;-62
2023/11/03 08:59:03;;;;;;;9.65;7.13;;;;;;;6.53;55.32;99876.72;5114034;28;20031;-58
2023/11/03 09:01:29;;;;;;;12.38;6.57;;;;;;;6.55;54.80;99886.28;5114336;28;20051;-64
2023/11/03 09:03:54;;;;;;;8.85;6.03;;;;;;;6.58;55.08;99890.56;5114119;28;20453;-62
2023/11/03 09:06:20;;;;;;;11.02;6.20;;;;;;;6.60;54.88;99892.16;5114055;28;20023;-64
2023/11/03 09:08:46;;;;;;;12.60;6.75;;;;;;;6.60;54.89;99892.16;5113862;28;20085;-63
2023/11/03 09:11:12;;;;;;;11.15;8.27;;;;;;;6.56;54.95;99889.81;5113054;28;20051;-62
2023/11/03 09:13:52;;;;;;;7.72;5.80;;;;;;;6.56;54.70;99864.06;5114387;28;20020;-63
2023/11/03 09:16:19;;;;;;;9.10;6.18;;;;;;;6.64;54.36;99884.00;5108385;28;20060;-63
2023/11/03 09:18:46;;;;;;;9.30;6.65;;;;;;;6.63;54.25;99883.16;5102830;28;20028;-62
2023/11/03 09:21:13;;;;;;;10.73;6.18;;;;;;;6.64;54.10;99884.84;5111960;28;20046;-57
2023/11/03 09:23:38;;;;;;;10.85;5.97;;;;;;;6.49;54.09;99859.22;5113071;28;20471;-62
2023/11/03 09:26:04;;;;;;;8.55;7.38;;;;;;;6.72;53.68;99889.69;5113968;28;20059;-63
2023/11/03 09:28:30;;;;;;;10.35;7.47;;;;;;;6.74;54.07;99895.78;5112523;28;20080;-62
2023/11/03 09:30:57;;;;;;;10.85;8.48;;;;;;;6.75;53.50;99887.69;5106211;28;20107;-61
2023/11/03 09:33:23;;;;;;;12.05;8.27;;;;;;;6.77;53.21;99894.72;5113558;28;20112;-63
2023/11/03 09:35:48;;;;;;;14.18;8.77;;;;;;;6.70;53.33;99880.97;5113147;28;20504;-62
2023/11/03 09:38:19;;;;;;;9.63;7.97;;;;;;;6.81;53.06;99904.22;5113364;28;20027;-60
2023/11/03 09:40:46;;;;;;;10.70;7.72;;;;;;;6.81;52.98;99905.06;5109841;28;20143;-62
2023/11/03 09:43:13;;;;;;;10.50;8.63;;;;;;;6.82;52.58;99905.94;5112910;28;20450;-59
2023/11/03 09:45:42;;;;;;;8.80;7.75;;;;;;;6.79;52.61;99893.66;5113715;28;20024;-61
2023/11/03 09:48:12;;;;;;;8.52;7.32;;;;;;;6.74;52.37;99899.25;5103875;28;20038;-63
2023/11/03 09:50:38;;;;;;;8.43;7.38;;;;;;;6.79;52.75;99909.63;5101670;28;20032;-65
2023/11/03 09:53:10;;;;;;;11.65;6.90;;;;;;;6.92;52.87;99909.69;5099217;28;20027;-63
2023/11/03 09:55:37;;;;;;;11.95;7.38;;;;;;;7.00;52.11;99912.75;5113420;28;20028;-65
2023/11/03 09:58:05;;;;;;;9.20;8.20;;;;;;;7.01;52.05;99922.44;5112627;28;20035;-63
2023/11/03 10:00:32;;;;;;;9.40;7.88;;;;;;;6.90;51.98;99919.59;5093640;28;20036;-62
2023/11/03 10:02:58;;;;;;;13.32;7.68;;;;;;;6.95;52.07;99920.16;5093227;28;20031;-63
2023/11/03 10:05:27;;;;;;;7.65;6.82;;;;;;;7.02;52.14;99942.78;5097022;28;20057;-61
2023/11/03 10:08:01;;;;;;;13.02;6.53;;;;;;;7.09;51.90;99942.38;5112766;28;20039;-64
2023/11/03 10:10:34;;;;;;;11.77;6.53;;;;;;;7.14;51.99;99938.47;5112518;28;20024;-66
2023/11/03 10:13:10;;;;;;;8.05;6.20;;;;;;;7.17;51.51;99950.72;5112907;28;20016;-60
2023/11/03 10:15:39;;;;;;;9.52;6.88;;;;;;;7.24;51.73;99944.06;5113119;28;20533;-65
2023/11/03 10:18:06;;;;;;;13.70;6.53;;;;;;;7.24;51.42;99949.38;5111673;28;20027;-65
2023/11/03 10:20:32;;;;;;;11.32;6.82;;;;;;;7.23;51.52;99944.97;5112709;28;20074;-66
2023/11/03 10:22:57;;;;;;;15.07;6.38;;;;;;;7.20;51.40;99939.03;5113266;28;20058;-66
2023/11/03 10:25:26;;;;;;;7.00;6.30;;;;;;;7.22;51.76;99958.41;5112374;28;20023;-65
2023/11/03 10:27:55;;;;;;;10.73;6.40;;;;;;;7.27;51.58;99956.31;5112438;28;20441;-66
2023/11/03 10:30:27;;;;;;;12.70;5.93;;;;;;;7.31;51.58;99947.16;5112363;28;20032;-65
2023/11/03 10:32:53;;;;;;;11.15;6.10;;;;;;;7.27;51.90;99949.19;5112728;27;20088;-64
2023/11/03 10:35:19;;;;;;;10.65;6.15;;;;;;;7.27;51.89;99949.19;5112737;28;20027;-64
2023/11/03 10:37:46;;;;;;;5.93;5.15;;;;;;;7.31;51.69;99947.16;5111765;28;20341;-64
2023/11/03 10:40:13;;;;;;;6.55;5.03;;;;;;;7.31;51.82;99953.34;5113114;28;20027;-66
2023/11/03 10:42:40;;;;;;;8.73;6.07;;;;;;;7.30;51.62;99946.31;5112507;28;20062;-65
2023/11/03 10:45:07;;;;;;;9.57;5.82;;;;;;;7.28;51.47;99940.25;5112929;28;20027;-65
2023/11/03 10:48:04;;;;;;;7.85;6.05;;;;;;;7.48;52.43;99938.09;5112396;28;20023;-65
2023/11/03 10:50:35;;;;;;;8.60;6.32;;;;;;;7.29;51.57;99928.63;5043191;28;20120;-61
2023/11/03 10:53:12;;;;;;;11.18;6.45;;;;;;;7.37;51.59;99935.25;5094165;28;20032;-64
2023/11/03 10:55:45;;;;;;;15.43;6.10;;;;;;;7.26;51.31;99935.94;5110829;28;20106;-66
2023/11/03 10:58:11;;;;;;;9.95;5.97;;;;;;;7.12;51.58;99918.22;5096617;28;20035;-62
2023/11/03 11:00:55;;;;;;;11.40;5.88;;;;;;;7.32;52.02;99933.75;5092283;28;20106;-68
2023/11/03 11:03:33;;;;;;;11.60;6.18;;;;;;;7.10;51.75;99914.81;5102189;28;20023;-65
2023/11/03 11:06:22;;;;;;;11.73;5.78;;;;;;;7.25;51.21;99943.09;5104285;28;20036;-66
2023/11/03 11:08:56;;;;;;;6.32;5.57;;;;;;;6.93;51.63;99902.59;5095892;28;20419;-68
2023/11/03 11:11:25;;;;;;;8.50;6.57;;;;;;;7.17;51.77;99940.94;5109497;28;20095;-65
2023/11/03 11:13:51;;;;;;;7.97;6.07;;;;;;;7.16;51.50;99952.53;5103097;28;20030;-68
2023/11/03 11:16:17;;;;;;;14.93;7.30;;;;;;;7.10;51.47;99957.41;5105544;28;20176;-65
2023/11/03 11:18:52;;;;;;;9.00;6.30;;;;;;;6.74;52.45;99949.00;5102573;28;20446;-67
2023/11/03 11:21:32;;;;;;;10.20;6.05;;;;;;;6.80;52.43;99948.59;5103010;28;20051;-64
2023/11/03 11:23:59;;;;;;;9.98;6.72;;;;;;;6.52;53.15;99950.31;5111054;28;20036;-69
2023/11/03 11:26:30;;;;;;;8.90;5.38;;;;;;;6.55;53.67;99954.59;5097398;28;20470;-67
2023/11/03 11:28:59;;;;;;;16.55;5.30;;;;;;;6.36;53.57;99907.88;5111637;28;20343;-66
2023/11/03 11:31:25;;;;;;;7.95;5.45;;;;;;;6.63;53.37;99951.44;5110908;28;20042;-66
2023/11/03 11:34:02;;;;;;;9.18;5.07;;;;;;;6.74;53.50;99955.16;5112485;28;20043;-67
2023/11/03 11:36:31;;;;;;;8.13;5.50;;;;;;;6.71;53.02;99960.66;5111306;28;20063;-66
2023/11/03 11:39:12;;;;;;;7.15;5.75;;;;;;;6.77;53.11;99956.78;5111326;28;20088;-66